Adair, Iowa
Current Conditions -  °F | °C
As of 4:15 PM on Tuesday 21 Oct 2014 (Local Time) from KADU Reporting Station
Clear Clear  
Wind Chill: 70°   Ceiling: Unl
Heat Index: 70°   Visibility: 10mi
Dew Point: 30°   Wind: 6mph
Humidity: 23%   Direction: 150°SSE
Pressure: 30.08"   Gusts: NA
Location:  41.5°N, 94.64°W
Report Text: KADU 212115Z AUTO 15005KT 10SM CLR 21/M01 A3008 RMK AO2
Loading
Personal Weather Stations






























Interactive Weather Map New forecast layout! Learn more

10-Day Weather Forecast

Advertisements
Track Severe Weather on mobile